Time;durP1;ratioP1;P1;durP2;ratioP2;P2;SDS_P1;SDS_P2;PMS_P1;PMS_P2;Temp;Humidity;BMP_temperature;BMP_pressure;BME280_temperature;BME280_humidity;BME280_pressure;Samples;Min_cycle;Max_cycle;Signal;HPM_P1;HPM_P2
2023/06/20 00:03:20;;;;;;;17.77;14.18;;;19.50;99.90;;;;;;10366371;28;20263;-85
2023/06/20 00:08:22;;;;;;;19.17;12.57;;;19.50;99.90;;;;;;10361258;28;20824;-84
2023/06/20 00:13:25;;;;;;;15.80;12.35;;;19.50;99.90;;;;;;10310280;28;20236;-85
2023/06/20 00:18:29;;;;;;;17.48;12.90;;;19.60;99.90;;;;;;10325625;28;20303;-85
2023/06/20 00:23:32;;;;;;;14.85;13.30;;;19.40;99.90;;;;;;10342466;28;20294;-84
2023/06/20 00:28:34;;;;;;;15.07;13.48;;;19.30;99.90;;;;;;10302914;28;20251;-85
2023/06/20 00:33:37;;;;;;;15.27;12.10;;;19.00;99.90;;;;;;10334755;28;20278;-85
2023/06/20 00:38:40;;;;;;;15.25;13.65;;;18.90;99.90;;;;;;10327137;28;20244;-85
2023/06/20 00:43:42;;;;;;;15.93;13.73;;;18.70;99.90;;;;;;10308654;28;21035;-85
2023/06/20 00:48:46;;;;;;;20.30;14.55;;;;;;;;;;10325584;28;20260;-85
2023/06/20 00:53:49;;;;;;;16.48;13.60;;;18.40;99.90;;;;;;10318881;28;20265;-85
2023/06/20 00:58:52;;;;;;;14.65;12.85;;;18.20;99.90;;;;;;10366996;28;20248;-85
2023/06/20 01:03:56;;;;;;;14.55;12.98;;;18.10;99.90;;;;;;10335609;28;20260;-85
2023/06/20 01:09:15;;;;;;;17.50;12.65;;;18.10;99.90;;;;;;10307479;28;20261;-85
2023/06/20 01:14:28;;;;;;;17.35;15.05;;;18.00;99.90;;;;;;10318605;28;20248;-85
2023/06/20 01:19:50;;;;;;;16.75;14.48;;;17.90;99.90;;;;;;10348486;28;20243;-85
2023/06/20 01:24:59;;;;;;;17.00;14.32;;;17.70;99.90;;;;;;10326791;28;20291;-84
2023/06/20 01:30:36;;;;;;;15.13;13.55;;;17.60;99.90;;;;;;10340554;28;20820;-85
2023/06/20 01:35:41;;;;;;;11.13;9.68;;;17.60;99.90;;;;;;10309868;28;20289;-85
2023/06/20 01:40:49;;;;;;;16.25;13.85;;;17.60;99.90;;;;;;10315957;28;20253;-85
2023/06/20 01:45:53;;;;;;;18.67;15.60;;;17.50;99.90;;;;;;10333950;28;20330;-85
2023/06/20 01:50:56;;;;;;;16.02;14.38;;;17.20;99.90;;;;;;10331523;28;20205;-85
2023/06/20 01:56:03;;;;;;;16.55;14.65;;;17.10;99.90;;;;;;10332273;28;20225;-85
2023/06/20 02:01:07;;;;;;;16.00;14.27;;;17.10;99.90;;;;;;10302503;28;20311;-85
2023/06/20 02:06:13;;;;;;;13.63;11.98;;;17.10;99.90;;;;;;10314979;28;20338;-85
2023/06/20 02:11:17;;;;;;;17.33;15.50;;;17.10;99.90;;;;;;10314181;28;20275;-85
2023/06/20 02:16:22;;;;;;;17.73;15.43;;;17.10;99.90;;;;;;10314389;28;20303;-85
2023/06/20 02:21:29;;;;;;;16.20;14.63;;;16.90;99.90;;;;;;10294233;28;20932;-85
2023/06/20 02:26:36;;;;;;;18.25;16.13;;;16.90;99.90;;;;;;10325119;28;20256;-85
2023/06/20 02:31:47;;;;;;;14.90;12.45;;;16.90;99.90;;;;;;10313586;28;20232;-85
2023/06/20 02:36:55;;;;;;;21.15;16.92;;;17.00;99.90;;;;;;10331025;28;20240;-85
2023/06/20 02:41:58;;;;;;;18.35;16.55;;;16.90;99.90;;;;;;10312971;28;20707;-85
2023/06/20 02:47:36;;;;;;;13.25;11.95;;;16.80;99.90;;;;;;10311934;28;20264;-85
2023/06/20 02:53:00;;;;;;;17.00;14.30;;;16.90;99.90;;;;;;10206163;29;20246;-85
2023/06/20 02:58:12;;;;;;;20.58;16.50;;;16.90;99.90;;;;;;10188203;29;20238;-85
2023/06/20 03:03:33;;;;;;;18.55;16.63;;;16.70;99.90;;;;;;10166026;29;20331;-85
2023/06/20 03:08:40;;;;;;;16.15;14.50;;;16.60;99.90;;;;;;10168714;29;20282;-85
2023/06/20 03:13:44;;;;;;;18.92;16.00;;;16.60;99.90;;;;;;10204298;29;20231;-85
2023/06/20 03:18:47;;;;;;;21.48;16.05;;;16.70;99.90;;;;;;10189003;29;20242;-85
2023/06/20 03:23:51;;;;;;;22.88;16.73;;;16.70;99.90;;;;;;10204353;29;20238;-85
2023/06/20 03:28:53;;;;;;;16.20;13.98;;;16.80;99.90;;;;;;10265023;28;20265;-85
2023/06/20 03:33:56;;;;;;;19.38;17.27;;;16.90;99.90;;;;;;10320840;28;20661;-85
2023/06/20 03:38:58;;;;;;;16.58;14.88;;;16.80;99.90;;;;;;10310973;28;20861;-85
2023/06/20 03:44:02;;;;;;;17.10;14.32;;;17.00;99.90;;;;;;10308121;28;20699;-85
2023/06/20 03:49:05;;;;;;;18.67;16.35;;;17.10;99.90;;;;;;10309941;28;20268;-85
2023/06/20 03:54:07;;;;;;;18.00;15.52;;;17.20;99.90;;;;;;10309518;28;20839;-85
2023/06/20 03:59:10;;;;;;;12.65;10.85;;;17.10;99.90;;;;;;10308090;28;20205;-84
2023/06/20 04:04:13;;;;;;;16.50;13.65;;;17.30;99.90;;;;;;10309622;28;20213;-85
2023/06/20 04:09:20;;;;;;;19.52;15.85;;;17.60;99.90;;;;;;10315546;28;20267;-85
2023/06/20 04:14:22;;;;;;;13.27;11.88;;;17.60;99.90;;;;;;10320801;28;20235;-84
2023/06/20 04:19:25;;;;;;;17.27;13.30;;;17.80;99.90;;;;;;10338735;28;20200;-85
2023/06/20 04:24:28;;;;;;;18.08;14.75;;;18.00;99.90;;;;;;10306997;28;20236;-84
2023/06/20 04:29:30;;;;;;;15.48;13.88;;;18.40;99.90;;;;;;10324037;28;20268;-85
2023/06/20 04:34:33;;;;;;;23.33;18.17;;;18.70;99.90;;;;;;10307096;28;20241;-84
2023/06/20 04:39:36;;;;;;;18.27;15.02;;;18.90;99.90;;;;;;10307806;28;20245;-84
2023/06/20 04:44:39;;;;;;;22.50;17.70;;;19.00;99.90;;;;;;10306592;28;20228;-84
2023/06/20 04:49:43;;;;;;;10.50;9.50;;;19.20;99.90;;;;;;10303816;28;20284;-84
2023/06/20 04:54:45;;;;;;;12.82;11.48;;;19.40;99.90;;;;;;10303163;28;20787;-85
2023/06/20 04:59:49;;;;;;;18.85;16.88;;;19.60;99.90;;;;;;10285431;28;20300;-84
2023/06/20 05:04:52;;;;;;;17.10;15.30;;;19.80;99.90;;;;;;10296286;28;20240;-84
2023/06/20 05:09:55;;;;;;;16.98;14.32;;;19.90;99.90;;;;;;10326285;28;20310;-84
2023/06/20 05:14:58;;;;;;;22.02;16.27;;;20.00;99.90;;;;;;10340641;28;20256;-85
2023/06/20 05:20:05;;;;;;;13.48;11.25;;;20.20;99.90;;;;;;10354646;28;20761;-84
2023/06/20 05:25:09;;;;;;;19.55;15.73;;;20.40;99.90;;;;;;10354276;28;20370;-83
2023/06/20 05:30:11;;;;;;;12.98;11.57;;;20.60;99.90;;;;;;10319203;28;20640;-84
2023/06/20 05:35:15;;;;;;;20.80;17.95;;;20.80;99.40;;;;;;10342585;28;20236;-85
2023/06/20 05:40:18;;;;;;;11.18;10.07;;;21.00;99.10;;;;;;10313801;28;20553;-85
2023/06/20 05:45:20;;;;;;;17.63;14.38;;;21.10;98.10;;;;;;10332225;28;20295;-84
2023/06/20 05:50:24;;;;;;;12.55;11.23;;;21.20;98.10;;;;;;10331167;28;20336;-84
2023/06/20 05:55:27;;;;;;;23.05;14.48;;;21.40;97.60;;;;;;10330810;28;20241;-85
2023/06/20 06:00:30;;;;;;;14.27;12.88;;;21.50;97.50;;;;;;10338509;28;20304;-84
2023/06/20 06:05:32;;;;;;;16.65;12.70;;;21.70;96.20;;;;;;10332522;28;20256;-85
2023/06/20 06:10:35;;;;;;;13.88;12.43;;;22.10;96.10;;;;;;10314530;28;20260;-83
2023/06/20 06:15:37;;;;;;;15.02;13.45;;;22.30;99.90;;;;;;10314568;28;20271;-84
2023/06/20 06:20:51;;;;;;;17.67;14.85;;;21.40;99.90;;;;;;10328099;28;20311;-85
2023/06/20 06:25:54;;;;;;;19.00;12.93;;;22.50;94.80;;;;;;10330979;28;20237;-85
2023/06/20 06:30:59;;;;;;;14.65;12.40;;;22.60;93.90;;;;;;10331239;28;20264;-85
2023/06/20 06:36:03;;;;;;;7.93;7.13;;;;;;;;;;10330989;28;20688;-84
2023/06/20 06:41:06;;;;;;;14.02;11.95;;;23.00;92.60;;;;;;10330545;28;20640;-84
2023/06/20 06:46:09;;;;;;;21.40;12.48;;;23.10;92.40;;;;;;10313024;28;20212;-84
2023/06/20 06:51:11;;;;;;;11.15;10.05;;;23.30;91.30;;;;;;10330530;28;20315;-85
2023/06/20 06:56:14;;;;;;;20.33;13.98;;;23.50;91.70;;;;;;10330098;28;20249;-84
2023/06/20 07:01:17;;;;;;;13.02;11.52;;;23.70;91.20;;;;;;10328766;28;20693;-84
2023/06/20 07:06:20;;;;;;;11.00;9.98;;;23.70;93.60;;;;;;10328342;28;20213;-84
2023/06/20 07:11:24;;;;;;;12.40;11.20;;;24.00;86.10;;;;;;10312311;28;20299;-84
2023/06/20 07:16:28;;;;;;;18.33;11.88;;;24.30;86.90;;;;;;10329588;28;20205;-84
2023/06/20 07:21:31;;;;;;;9.73;8.77;;;24.40;84.30;;;;;;10329279;28;20248;-84
2023/06/20 07:26:33;;;;;;;17.65;13.05;;;24.60;80.40;;;;;;10329145;28;20249;-84
2023/06/20 07:31:36;;;;;;;12.63;11.43;;;24.60;90.20;;;;;;10328890;28;20260;-84
2023/06/20 07:36:38;;;;;;;12.70;10.80;;;25.10;93.20;;;;;;10327911;28;20241;-84
2023/06/20 07:41:41;;;;;;;15.32;13.65;;;25.20;75.30;;;;;;10311046;28;20631;-84
2023/06/20 07:46:43;;;;;;;19.50;13.98;;;25.40;73.00;;;;;;10328608;28;20299;-84
2023/06/20 07:51:46;;;;;;;13.00;9.25;;;25.50;74.30;;;;;;10309924;28;20727;-85
2023/06/20 07:56:49;;;;;;;13.18;11.82;;;25.70;69.90;;;;;;10327364;28;20636;-84
2023/06/20 08:01:51;;;;;;;13.10;11.80;;;25.90;64.00;;;;;;10327489;28;20291;-84
2023/06/20 08:06:54;;;;;;;11.93;10.60;;;26.10;66.20;;;;;;10310211;28;20244;-84
2023/06/20 08:11:57;;;;;;;12.25;11.13;;;26.30;61.10;;;;;;10327300;28;20268;-84
2023/06/20 08:16:59;;;;;;;9.18;8.27;;;26.50;58.20;;;;;;10306403;28;20228;-85
2023/06/20 08:22:02;;;;;;;12.40;9.18;;;26.60;56.90;;;;;;10326400;28;20244;-85
2023/06/20 08:27:05;;;;;;;18.08;11.07;;;;;;;;;;10309430;28;20261;-85
2023/06/20 08:32:08;;;;;;;10.35;9.25;;;26.90;50.30;;;;;;10326437;28;20244;-84
2023/06/20 08:37:10;;;;;;;10.95;9.90;;;27.20;48.90;;;;;;10308669;28;20240;-85
2023/06/20 08:42:13;;;;;;;11.50;10.30;;;27.30;47.50;;;;;;10325870;28;20244;-85
2023/06/20 08:47:15;;;;;;;11.68;10.48;;;27.40;45.90;;;;;;10325013;28;20304;-85
2023/06/20 08:52:24;;;;;;;8.93;7.60;;;27.60;45.30;;;;;;10326771;28;20236;-84
2023/06/20 08:57:27;;;;;;;11.00;9.90;;;27.70;41.70;;;;;;10308658;28;20542;-87
2023/06/20 09:02:29;;;;;;;11.57;10.23;;;27.70;42.20;;;;;;10325198;28;20264;-85
2023/06/20 09:07:37;;;;;;;11.88;10.68;;;27.80;39.80;;;;;;10325878;28;20255;-86
2023/06/20 09:12:54;;;;;;;10.65;9.57;;;27.90;40.40;;;;;;10325579;28;20233;-86
2023/06/20 09:17:59;;;;;;;9.43;8.52;;;27.70;39.00;;;;;;10325344;28;20248;-85
2023/06/20 09:23:02;;;;;;;10.15;9.23;;;27.80;37.50;;;;;;10309079;28;20288;-86
2023/06/20 09:28:16;;;;;;;9.57;8.68;;;27.80;38.00;;;;;;10325968;28;20705;-85
2023/06/20 09:33:19;;;;;;;9.82;8.82;;;27.60;37.00;;;;;;10325426;28;20244;-86
2023/06/20 09:38:23;;;;;;;12.25;11.05;;;27.80;34.50;;;;;;10340871;28;20233;-85
2023/06/20 09:43:25;;;;;;;11.80;10.02;;;27.80;35.00;;;;;;10308412;28;20272;-84
2023/06/20 09:48:32;;;;;;;9.93;9.02;;;27.90;32.80;;;;;;10325334;28;20264;-85
2023/06/20 09:53:49;;;;;;;10.88;9.60;;;28.00;35.20;;;;;;10325237;28;20749;-85
2023/06/20 09:58:53;;;;;;;12.02;10.18;;;28.10;32.50;;;;;;10330985;28;20648;-85
2023/06/20 10:03:57;;;;;;;10.00;9.00;;;28.30;31.30;;;;;;10332607;28;20642;-85
2023/06/20 10:09:00;;;;;;;11.05;9.40;;;28.30;27.10;;;;;;10314349;28;20264;-85
2023/06/20 10:14:04;;;;;;;9.98;9.05;;;28.40;29.00;;;;;;10331365;28;20258;-85
2023/06/20 10:19:17;;;;;;;9.90;8.77;;;28.50;27.80;;;;;;10331954;28;20303;-85
2023/06/20 10:24:28;;;;;;;10.80;9.60;;;28.80;24.10;;;;;;10331488;28;20294;-85
2023/06/20 10:29:39;;;;;;;8.98;8.07;;;28.80;25.40;;;;;;10331444;28;20260;-85
2023/06/20 10:34:42;;;;;;;10.38;9.38;;;28.80;23.70;;;;;;10312660;28;20237;-85
2023/06/20 10:39:55;;;;;;;9.60;8.68;;;29.00;26.10;;;;;;10329073;28;20220;-85
2023/06/20 10:45:16;;;;;;;9.65;8.63;;;28.80;23.80;;;;;;10330175;28;20248;-85
2023/06/20 10:50:20;;;;;;;10.23;9.10;;;28.80;27.20;;;;;;10330293;28;20264;-85
2023/06/20 10:55:26;;;;;;;10.52;9.52;;;28.80;25.30;;;;;;10311955;28;20770;-84
2023/06/20 11:00:28;;;;;;;22.52;9.82;;;28.80;22.20;;;;;;10330244;28;20264;-86
2023/06/20 11:05:31;;;;;;;10.02;9.02;;;28.80;22.70;;;;;;10328418;28;20299;-86
2023/06/20 11:10:36;;;;;;;11.40;10.05;;;29.20;24.10;;;;;;10325917;28;20267;-86
2023/06/20 11:15:38;;;;;;;12.80;9.55;;;29.20;21.60;;;;;;10329121;28;20244;-86
2023/06/20 11:20:41;;;;;;;9.80;8.85;;;29.10;23.00;;;;;;10328334;28;20289;-85
2023/06/20 11:25:44;;;;;;;11.05;8.48;;;29.10;20.40;;;;;;10328822;28;20299;-84
2023/06/20 11:30:47;;;;;;;9.82;8.82;;;29.20;21.40;;;;;;10310084;28;20260;-86
2023/06/20 11:35:54;;;;;;;11.25;9.60;;;29.30;21.40;;;;;;10311015;28;20685;-85
2023/06/20 11:41:04;;;;;;;11.48;9.98;;;29.30;19.70;;;;;;10327588;28;20687;-86
2023/06/20 11:46:08;;;;;;;10.68;9.57;;;29.30;19.30;;;;;;10342765;28;20240;-86
2023/06/20 11:51:12;;;;;;;11.77;8.75;;;29.40;19.40;;;;;;10327242;28;20319;-85
2023/06/20 11:56:21;;;;;;;12.02;8.93;;;29.30;17.70;;;;;;10326886;28;20295;-85
2023/06/20 12:01:25;;;;;;;9.15;8.25;;;29.30;17.90;;;;;;10326175;28;20268;-85
2023/06/20 12:06:34;;;;;;;10.75;8.48;;;29.50;17.40;;;;;;10325220;28;20260;-85
2023/06/20 12:11:52;;;;;;;9.55;7.88;;;29.60;16.80;;;;;;10326503;28;20620;-85
2023/06/20 12:16:54;;;;;;;8.52;7.80;;;29.80;16.00;;;;;;10341617;28;20232;-85
2023/06/20 12:21:59;;;;;;;9.40;8.50;;;29.90;17.30;;;;;;10326159;28;20362;-85
2023/06/20 12:27:01;;;;;;;9.93;8.95;;;29.80;17.00;;;;;;10325548;28;20322;-85
2023/06/20 12:32:04;;;;;;;11.32;9.18;;;29.60;16.90;;;;;;10325104;28;20793;-86
2023/06/20 12:37:07;;;;;;;12.23;9.90;;;29.50;17.90;;;;;;10325584;28;20245;-86
2023/06/20 12:42:12;;;;;;;12.20;10.23;;;29.40;18.10;;;;;;10340873;28;20249;-85
2023/06/20 12:47:16;;;;;;;12.77;8.18;;;29.50;18.10;;;;;;10325280;28;20275;-86
2023/06/20 12:52:19;;;;;;;12.95;10.30;;;29.60;16.70;;;;;;10323154;28;20264;-86
2023/06/20 12:57:25;;;;;;;9.98;8.15;;;29.70;17.30;;;;;;10325196;28;20244;-86
2023/06/20 13:02:28;;;;;;;11.38;10.18;;;29.90;17.00;;;;;;10296875;28;20327;-85
2023/06/20 13:07:31;;;;;;;13.60;9.60;;;29.90;16.30;;;;;;10284993;28;20755;-85
2023/06/20 13:12:34;;;;;;;11.05;9.45;;;30.20;16.60;;;;;;10267736;28;20252;-85
2023/06/20 13:17:37;;;;;;;11.25;10.10;;;30.20;15.40;;;;;;10267571;28;20300;-85
2023/06/20 13:22:42;;;;;;;10.98;9.10;;;30.30;16.70;;;;;;10267631;28;20233;-85
2023/06/20 13:27:49;;;;;;;9.77;8.73;;;30.50;15.40;;;;;;10284736;28;20288;-85
2023/06/20 13:32:52;;;;;;;13.43;10.00;;;30.50;15.40;;;;;;10271753;28;20265;-83
2023/06/20 13:37:54;;;;;;;12.65;8.60;;;30.50;15.70;;;;;;10296888;28;20291;-86
2023/06/20 13:42:57;;;;;;;11.43;9.10;;;30.20;17.50;;;;;;10299996;28;20252;-85
2023/06/20 13:48:00;;;;;;;19.05;10.75;;;29.80;19.10;;;;;;10277212;28;20241;-86
2023/06/20 13:53:04;;;;;;;11.20;10.13;;;29.70;13.70;;;;;;10299462;28;20253;-86
2023/06/20 13:58:08;;;;;;;10.85;9.70;;;29.90;17.50;;;;;;10291828;28;20276;-86
2023/06/20 14:03:10;;;;;;;11.07;10.00;;;29.80;16.00;;;;;;10324435;28;20264;-86
2023/06/20 14:08:13;;;;;;;11.70;9.40;;;29.70;14.80;;;;;;10331639;28;20236;-86
2023/06/20 14:13:17;;;;;;;11.27;10.00;;;29.60;17.50;;;;;;10314351;28;20265;-86
2023/06/20 14:18:20;;;;;;;12.52;9.10;;;29.60;17.60;;;;;;10330363;28;20229;-86
2023/06/20 14:23:23;;;;;;;14.77;10.73;;;29.40;16.10;;;;;;10313994;28;20671;-86
2023/06/20 14:28:27;;;;;;;12.70;10.55;;;29.30;16.60;;;;;;10329664;28;20765;-86
2023/06/20 14:33:30;;;;;;;12.77;10.32;;;29.20;18.20;;;;;;10330456;28;20672;-86
2023/06/20 14:38:33;;;;;;;11.43;10.30;;;29.20;18.10;;;;;;10330158;28;20245;-86
2023/06/20 14:43:35;;;;;;;16.17;10.65;;;29.20;20.30;;;;;;10328385;28;20264;-89
2023/06/20 14:48:38;;;;;;;13.50;10.90;;;29.20;20.20;;;;;;10330217;28;20695;-86
2023/06/20 14:53:41;;;;;;;13.95;9.55;;;29.10;19.60;;;;;;10330189;28;20225;-86
2023/06/20 14:58:44;;;;;;;16.27;10.85;;;29.10;22.70;;;;;;10311552;28;20237;-85
2023/06/20 15:03:46;;;;;;;28.25;10.85;;;29.00;21.10;;;;;;10315778;28;20280;-84
2023/06/20 15:08:49;;;;;;;11.00;9.93;;;29.00;24.00;;;;;;10297474;28;20300;-84
2023/06/20 15:13:51;;;;;;;17.23;10.25;;;28.90;24.20;;;;;;10301330;28;20245;-84
2023/06/20 15:18:54;;;;;;;15.05;11.52;;;28.90;23.20;;;;;;10284669;28;20311;-84
2023/06/20 15:23:57;;;;;;;24.60;10.73;;;28.90;23.60;;;;;;10306746;28;20237;-83
2023/06/20 15:28:59;;;;;;;11.18;8.32;;;28.80;22.40;;;;;;10323527;28;20241;-83
2023/06/20 15:34:02;;;;;;;17.20;9.15;;;28.60;22.90;;;;;;10325666;28;20283;-85
2023/06/20 15:39:05;;;;;;;17.25;9.93;;;28.50;23.40;;;;;;9605863;28;10000175;-83
2023/06/20 15:44:07;;;;;;;11.35;9.93;;;28.30;24.10;;;;;;10301019;28;20252;-85
2023/06/20 15:49:10;;;;;;;11.10;9.65;;;28.10;25.10;;;;;;10325558;28;20252;-86
2023/06/20 15:54:13;;;;;;;12.13;9.43;;;27.90;25.90;;;;;;10309406;28;20298;-85
2023/06/20 15:59:16;;;;;;;11.05;5.78;;;27.70;26.80;;;;;;10304792;28;20256;-86
2023/06/20 16:04:19;;;;;;;13.80;10.73;;;;;;;;;;10335172;28;20253;-84
2023/06/20 16:09:22;;;;;;;12.68;9.18;;;27.30;29.10;;;;;;10331905;28;20256;-84
2023/06/20 16:14:24;;;;;;;10.90;9.60;;;27.10;31.00;;;;;;10310056;28;20662;-84
2023/06/20 16:19:27;;;;;;;15.18;9.52;;;27.10;31.70;;;;;;10326865;28;20244;-84
2023/06/20 16:24:29;;;;;;;11.70;9.77;;;27.00;32.20;;;;;;10307313;28;20236;-84
2023/06/20 16:29:32;;;;;;;11.30;10.20;;;27.00;32.80;;;;;;10326705;28;20292;-84
2023/06/20 16:34:35;;;;;;;12.95;10.15;;;27.00;33.30;;;;;;10309342;28;21059;-84
2023/06/20 16:39:38;;;;;;;12.35;10.07;;;26.90;34.00;;;;;;10304402;28;20240;-86
2023/06/20 16:44:41;;;;;;;12.82;11.27;;;26.90;35.10;;;;;;10290415;28;20244;-86
2023/06/20 16:49:44;;;;;;;12.90;11.02;;;26.80;35.40;;;;;;10325144;28;20268;-85
2023/06/20 16:54:46;;;;;;;14.73;11.02;;;26.80;35.70;;;;;;10325072;28;20252;-85
2023/06/20 16:59:51;;;;;;;14.50;11.15;;;26.70;36.20;;;;;;10318810;28;20268;-84
2023/06/20 17:04:53;;;;;;;12.48;11.27;;;26.60;36.60;;;;;;10267697;28;20296;-86
2023/06/20 17:09:56;;;;;;;14.38;11.38;;;26.60;36.80;;;;;;10292849;28;20303;-85
2023/06/20 17:14:59;;;;;;;12.85;11.23;;;26.50;37.10;;;;;;10297300;28;20232;-86
2023/06/20 17:20:01;;;;;;;15.90;11.02;;;26.50;39.20;;;;;;10297331;28;20253;-89
2023/06/20 17:25:04;;;;;;;15.98;11.30;;;26.30;40.60;;;;;;10293565;28;20254;-85
2023/06/20 17:30:07;;;;;;;12.35;10.00;;;26.30;41.90;;;;;;10315197;28;20311;-86
2023/06/20 17:35:10;;;;;;;12.82;11.10;;;26.20;42.60;;;;;;10333764;28;20241;-87
2023/06/20 17:40:14;;;;;;;12.80;10.57;;;26.20;43.50;;;;;;10301939;28;20226;-85
2023/06/20 17:45:16;;;;;;;13.13;9.45;;;26.10;44.50;;;;;;10275506;28;20241;-85
2023/06/20 17:50:19;;;;;;;10.90;9.27;;;26.10;45.00;;;;;;10310103;28;20299;-86
2023/06/20 17:55:22;;;;;;;9.95;8.95;;;26.00;46.10;;;;;;10309811;28;20245;-83
2023/06/20 18:00:25;;;;;;;11.30;9.60;;;25.90;48.10;;;;;;10274917;28;20312;-85
2023/06/20 18:05:30;;;;;;;10.20;9.20;;;25.80;49.20;;;;;;10290823;28;20280;-85
2023/06/20 18:10:32;;;;;;;12.93;11.60;;;25.70;49.60;;;;;;10291160;28;20273;-85
2023/06/20 18:15:35;;;;;;;15.52;10.90;;;25.60;51.20;;;;;;10291658;28;20245;-86
2023/06/20 18:20:37;;;;;;;15.35;11.55;;;25.50;54.50;;;;;;9603275;28;10000699;-84
2023/06/20 18:25:40;;;;;;;11.38;10.13;;;25.40;59.00;;;;;;10270469;28;20313;-85
2023/06/20 18:30:44;;;;;;;10.20;8.23;;;25.20;57.30;;;;;;10288692;28;20265;-85
2023/06/20 18:35:46;;;;;;;15.10;11.45;;;25.20;58.50;;;;;;10270631;28;20767;-85
2023/06/20 18:40:49;;;;;;;10.90;9.27;;;25.10;60.90;;;;;;10288361;28;20245;-85
2023/06/20 18:45:51;;;;;;;10.57;9.07;;;25.00;60.70;;;;;;10301046;28;20353;-84
2023/06/20 18:50:54;;;;;;;12.60;9.65;;;24.90;62.40;;;;;;10304779;28;20257;-85
2023/06/20 18:55:57;;;;;;;13.30;10.55;;;24.80;66.10;;;;;;10287095;28;20245;-85
2023/06/20 19:00:59;;;;;;;11.23;10.13;;;24.70;74.10;;;;;;10286182;28;20261;-86
2023/06/20 19:06:02;;;;;;;19.02;11.73;;;24.50;76.00;;;;;;10285414;28;20237;-86
2023/06/20 19:11:07;;;;;;;13.80;10.18;;;24.30;83.40;;;;;;10288002;28;20312;-87
2023/06/20 19:16:11;;;;;;;15.43;12.00;;;24.20;84.20;;;;;;10287269;28;20230;-86
2023/06/20 19:21:14;;;;;;;14.27;10.77;;;24.00;87.80;;;;;;10281230;28;20324;-87
2023/06/20 19:26:18;;;;;;;13.10;11.02;;;23.90;84.90;;;;;;10320305;28;20300;-86
2023/06/20 19:31:25;;;;;;;14.95;11.40;;;23.90;89.60;;;;;;10312822;28;20334;-85
2023/06/20 19:36:40;;;;;;;17.95;13.60;;;23.80;90.50;;;;;;10312526;28;20245;-86
2023/06/20 19:41:43;;;;;;;19.10;12.20;;;23.70;92.80;;;;;;10303792;28;20248;-85
2023/06/20 19:46:46;;;;;;;17.92;11.63;;;23.50;93.70;;;;;;10282782;28;20276;-85
2023/06/20 19:51:50;;;;;;;9.65;8.75;;;23.40;94.80;;;;;;10268076;28;20332;-85
2023/06/20 19:56:53;;;;;;;17.70;12.02;;;23.30;93.40;;;;;;10290377;28;20315;-85
2023/06/20 20:01:55;;;;;;;13.52;10.07;;;23.30;93.70;;;;;;10317908;28;20253;-88
2023/06/20 20:06:59;;;;;;;21.60;13.77;;;23.20;95.90;;;;;;10311630;28;20606;-88
2023/06/20 20:12:01;;;;;;;23.95;15.23;;;23.10;96.60;;;;;;10317326;28;20331;-88
2023/06/20 20:17:04;;;;;;;20.30;14.38;;;23.00;99.00;;;;;;10324201;28;20236;-86
2023/06/20 20:22:07;;;;;;;20.15;14.02;;;22.90;99.10;;;;;;10319124;28;20320;-85
2023/06/20 20:27:10;;;;;;;17.80;12.93;;;22.90;99.20;;;;;;10307978;28;20240;-86
2023/06/20 20:32:13;;;;;;;16.17;14.45;;;22.80;99.20;;;;;;10336156;28;20264;-86
2023/06/20 20:37:15;;;;;;;22.15;15.05;;;22.80;99.00;;;;;;10291504;28;20302;-86
2023/06/20 20:42:18;;;;;;;15.80;13.23;;;22.80;99.70;;;;;;10330945;28;20248;-83
2023/06/20 20:47:21;;;;;;;15.05;13.57;;;22.80;99.60;;;;;;10337954;28;20746;-86
2023/06/20 20:52:23;;;;;;;15.80;14.20;;;22.70;99.20;;;;;;10328777;28;20260;-84
2023/06/20 20:57:26;;;;;;;14.02;10.68;;;22.70;99.90;;;;;;10321659;28;20245;-85
2023/06/20 21:02:29;;;;;;;14.23;12.75;;;22.70;99.10;;;;;;10306251;28;20797;-84
2023/06/20 21:07:31;;;;;;;8.93;8.05;;;22.70;98.60;;;;;;10342896;28;20295;-84
2023/06/20 21:12:34;;;;;;;13.27;11.98;;;22.80;96.90;;;;;;10295398;28;20289;-86
2023/06/20 21:17:37;;;;;;;18.35;12.38;;;22.90;96.70;;;;;;10325515;28;20635;-85
2023/06/20 21:22:39;;;;;;;15.05;13.50;;;22.90;96.90;;;;;;10295741;28;20302;-85
2023/06/20 21:27:42;;;;;;;15.93;10.00;;;22.80;97.00;;;;;;10323842;28;20266;-84
2023/06/20 21:32:45;;;;;;;15.57;12.93;;;22.80;97.70;;;;;;10300886;28;20264;-86
2023/06/20 21:37:47;;;;;;;8.63;7.88;;;22.80;97.60;;;;;;10323475;28;20248;-83
2023/06/20 21:42:50;;;;;;;10.02;9.15;;;22.80;96.40;;;;;;10325175;28;20248;-83
2023/06/20 21:47:53;;;;;;;11.98;10.73;;;22.90;96.20;;;;;;10326755;28;20240;-84
2023/06/20 21:52:56;;;;;;;20.20;15.10;;;22.90;95.90;;;;;;10335019;28;20290;-83
2023/06/20 21:57:58;;;;;;;12.50;10.73;;;22.80;97.00;;;;;;10356185;28;21009;-84
2023/06/20 22:03:02;;;;;;;20.58;16.13;;;22.80;96.90;;;;;;10333179;28;20303;-85
2023/06/20 22:08:05;;;;;;;15.35;13.82;;;22.60;98.50;;;;;;10332405;28;20244;-84
2023/06/20 22:13:09;;;;;;;18.08;14.93;;;22.60;99.10;;;;;;10317336;28;20318;-84
2023/06/20 22:18:12;;;;;;;22.15;18.45;;;22.50;99.30;;;;;;10333020;28;20284;-84
2023/06/20 22:23:15;;;;;;;21.30;18.05;;;22.40;99.90;;;;;;10332371;28;20237;-85
2023/06/20 22:28:17;;;;;;;19.83;17.75;;;22.30;99.90;;;;;;10364483;28;20306;-84
2023/06/20 22:33:20;;;;;;;21.88;17.52;;;22.20;99.90;;;;;;10341086;28;20265;-84
2023/06/20 22:38:22;;;;;;;20.20;17.08;;;22.50;99.90;;;;;;10345281;28;20271;-85
2023/06/20 22:43:25;;;;;;;17.45;14.75;;;22.40;99.90;;;;;;10321031;28;20299;-84
2023/06/20 22:48:27;;;;;;;15.60;13.75;;;22.10;99.90;;;;;;10330505;28;20240;-84
2023/06/20 22:53:30;;;;;;;18.27;16.33;;;22.20;99.90;;;;;;10329787;28;20273;-84
2023/06/20 22:58:33;;;;;;;13.35;12.05;;;22.10;99.90;;;;;;10350452;28;20243;-84
2023/06/20 23:03:36;;;;;;;10.90;9.75;;;22.40;99.90;;;;;;10352858;28;20310;-84
2023/06/20 23:08:39;;;;;;;12.65;11.38;;;22.50;99.90;;;;;;10353482;28;20235;-84
2023/06/20 23:13:41;;;;;;;11.98;10.85;;;22.40;99.90;;;;;;10370168;28;20267;-84
2023/06/20 23:18:44;;;;;;;14.82;13.43;;;22.70;99.50;;;;;;10341049;28;20692;-84
2023/06/20 23:23:49;;;;;;;17.75;15.88;;;22.50;99.90;;;;;;10366649;28;20592;-85
2023/06/20 23:28:52;;;;;;;19.42;17.38;;;22.40;99.90;;;;;;10321720;28;20213;-84
2023/06/20 23:33:55;;;;;;;20.77;17.92;;;22.20;99.90;;;;;;10311892;28;20237;-85
2023/06/20 23:38:58;;;;;;;14.45;13.02;;;22.40;99.90;;;;;;10336504;28;20221;-85
2023/06/20 23:44:01;;;;;;;21.63;18.30;;;22.50;99.90;;;;;;10356121;28;20704;-84
2023/06/20 23:49:03;;;;;;;20.30;17.73;;;22.40;99.90;;;;;;10271927;28;20221;-85
2023/06/20 23:54:07;;;;;;;9.23;8.25;;;22.40;99.90;;;;;;10289102;28;20265;-85
2023/06/20 23:59:10;;;;;;;10.52;9.50;;;22.20;99.90;;;;;;10325540;28;20306;-84
